createdAt,value
2022-12-03T00:01:50.854Z,33.17
2022-12-03T00:04:17.279Z,31.83
2022-12-03T00:06:43.649Z,33.80
2022-12-03T00:09:10.000Z,34.53
2022-12-03T00:11:36.378Z,32.72
2022-12-03T00:14:02.901Z,34.47
2022-12-03T00:16:29.495Z,31.10
2022-12-03T00:18:56.061Z,33.03
2022-12-03T00:21:24.641Z,34.90
2022-12-03T00:23:51.635Z,30.23
2022-12-03T00:26:17.981Z,38.10
2022-12-03T00:28:44.330Z,33.72
2022-12-03T00:31:10.853Z,33.03
2022-12-03T00:33:37.194Z,37.47
2022-12-03T00:36:03.692Z,35.30
2022-12-03T00:38:30.034Z,35.47
2022-12-03T00:40:56.439Z,37.58
2022-12-03T00:43:22.759Z,36.58
2022-12-03T00:45:49.137Z,35.53
2022-12-03T00:48:15.644Z,35.13
2022-12-03T00:50:42.026Z,35.20
2022-12-03T00:53:08.388Z,34.55
2022-12-03T00:55:34.748Z,35.05
2022-12-03T00:58:01.100Z,33.42
2022-12-03T01:00:27.602Z,36.97
2022-12-03T01:02:54.313Z,36.85
2022-12-03T01:05:20.753Z,37.20
2022-12-03T01:07:47.243Z,34.72
2022-12-03T01:10:14.398Z,37.75
2022-12-03T01:12:41.153Z,38.83
2022-12-03T01:15:08.306Z,33.97
2022-12-03T01:17:34.644Z,40.50
2022-12-03T01:20:02.037Z,37.22
2022-12-03T01:22:28.377Z,34.58
2022-12-03T01:24:55.495Z,36.80
2022-12-03T01:27:22.095Z,43.25
2022-12-03T01:29:48.455Z,39.90
2022-12-03T01:32:18.162Z,46.08
2022-12-03T01:34:51.162Z,43.88
2022-12-03T01:37:19.530Z,35.13
2022-12-03T01:39:45.886Z,43.50
2022-12-03T01:42:17.382Z,42.92
2022-12-03T01:44:44.804Z,45.17
2022-12-03T01:47:15.805Z,39.83
2022-12-03T01:49:46.508Z,48.08
2022-12-03T01:52:16.011Z,42.03
2022-12-03T01:54:46.270Z,44.58
2022-12-03T01:57:24.798Z,50.92
2022-12-03T01:59:52.520Z,43.97
2022-12-03T02:02:25.533Z,43.38
2022-12-03T02:04:53.420Z,42.17
2022-12-03T02:07:26.347Z,44.42
2022-12-03T02:09:55.303Z,49.45
2022-12-03T02:12:31.761Z,43.53
2022-12-03T02:14:59.585Z,51.97
2022-12-03T02:17:26.980Z,43.40
2022-12-03T02:19:54.924Z,48.55
2022-12-03T02:22:37.191Z,45.53
2022-12-03T02:25:20.931Z,46.35
2022-12-03T02:27:48.168Z,42.67
2022-12-03T02:30:18.351Z,48.28
2022-12-03T02:32:45.305Z,49.67
2022-12-03T02:35:36.546Z,48.00
2022-12-03T02:38:10.920Z,51.13
2022-12-03T02:40:38.121Z,45.78
2022-12-03T02:43:05.488Z,50.00
2022-12-03T02:45:36.091Z,51.67
2022-12-03T02:48:06.946Z,51.20
2022-12-03T02:50:36.031Z,53.47
2022-12-03T02:53:07.065Z,53.85
2022-12-03T02:55:37.397Z,47.92
2022-12-03T02:58:05.299Z,50.40
2022-12-03T03:00:33.454Z,50.15
2022-12-03T03:03:01.376Z,50.67
2022-12-03T03:05:28.276Z,46.40
2022-12-03T03:07:58.351Z,53.90
2022-12-03T03:10:26.190Z,51.20
2022-12-03T03:12:54.909Z,44.25
2022-12-03T03:15:22.385Z,48.53
2022-12-03T03:17:49.147Z,45.37
2022-12-03T03:20:15.638Z,51.92
2022-12-03T03:22:43.391Z,50.85
2022-12-03T03:25:13.374Z,49.15
2022-12-03T03:27:41.676Z,57.95
2022-12-03T03:30:09.681Z,52.70
2022-12-03T03:32:37.289Z,37.58
2022-12-03T03:35:04.100Z,54.77
2022-12-03T03:37:31.006Z,52.50
2022-12-03T03:39:59.385Z,55.90
2022-12-03T03:42:25.974Z,58.13
2022-12-03T03:44:52.725Z,57.47
2022-12-03T03:47:20.208Z,46.38
2022-12-03T03:49:48.024Z,50.90
2022-12-03T03:52:14.865Z,51.58
2022-12-03T03:54:41.786Z,57.30
2022-12-03T03:57:08.466Z,50.92
2022-12-03T03:59:35.079Z,55.28
2022-12-03T04:02:01.417Z,56.22
2022-12-03T04:04:33.429Z,51.05
2022-12-03T04:07:01.430Z,50.28
2022-12-03T04:09:27.803Z,57.35
2022-12-03T04:12:12.841Z,49.95
2022-12-03T04:14:39.188Z,48.72
2022-12-03T04:17:05.687Z,47.25
2022-12-03T04:19:32.065Z,44.08
2022-12-03T04:22:17.215Z,51.63
2022-12-03T04:24:43.591Z,55.35
2022-12-03T04:27:28.920Z,51.97
2022-12-03T04:29:55.273Z,54.65
2022-12-03T04:32:40.335Z,51.60
2022-12-03T04:35:26.679Z,56.05
2022-12-03T04:37:53.171Z,52.85
2022-12-03T04:40:38.249Z,54.58
2022-12-03T04:43:04.753Z,59.20
2022-12-03T04:45:31.289Z,54.97
2022-12-03T04:47:57.665Z,53.00
2022-12-03T04:50:24.225Z,63.83
2022-12-03T04:52:50.725Z,61.30
2022-12-03T04:55:17.060Z,58.67
2022-12-03T04:57:43.462Z,60.15
2022-12-03T05:00:10.518Z,58.65
2022-12-03T05:02:36.931Z,60.92
2022-12-03T05:05:03.751Z,58.53
2022-12-03T05:07:30.447Z,60.13
2022-12-03T05:09:56.809Z,49.78
2022-12-03T05:12:23.304Z,60.03
2022-12-03T05:14:49.651Z,55.60
2022-12-03T05:17:16.157Z,66.40
2022-12-03T05:20:01.215Z,55.63
2022-12-03T05:22:27.589Z,49.80
2022-12-03T05:24:54.137Z,58.47
2022-12-03T05:27:23.916Z,55.78
2022-12-03T05:29:51.052Z,58.92
2022-12-03T05:32:17.352Z,55.47
2022-12-03T05:34:43.649Z,56.38
2022-12-03T05:37:10.206Z,53.83
2022-12-03T05:39:37.914Z,57.95
2022-12-03T05:42:23.474Z,51.30
2022-12-03T05:44:50.030Z,54.00
2022-12-03T05:47:16.564Z,58.75
2022-12-03T05:49:43.082Z,60.95
2022-12-03T05:52:09.576Z,52.53
2022-12-03T05:54:35.968Z,61.20
2022-12-03T05:57:02.346Z,59.35
2022-12-03T05:59:28.740Z,59.17
2022-12-03T06:01:55.282Z,65.55
2022-12-03T06:04:21.768Z,59.75
2022-12-03T06:06:48.170Z,61.60
2022-12-03T06:09:14.720Z,58.67
2022-12-03T06:11:41.265Z,61.55
2022-12-03T06:14:07.858Z,57.90
2022-12-03T06:16:34.223Z,60.42
2022-12-03T06:19:00.796Z,61.75
2022-12-03T06:21:27.285Z,58.60
2022-12-03T06:23:53.601Z,60.35
2022-12-03T06:26:20.166Z,58.47
2022-12-03T06:28:47.621Z,58.47
2022-12-03T06:31:14.208Z,58.07
2022-12-03T06:33:40.579Z,60.88
2022-12-03T06:36:07.164Z,55.97
2022-12-03T06:38:35.703Z,58.92
2022-12-03T06:41:02.094Z,56.92
2022-12-03T06:43:28.515Z,51.17
2022-12-03T06:45:55.022Z,58.35
2022-12-03T06:48:21.378Z,60.30
2022-12-03T06:50:47.779Z,60.00
2022-12-03T06:53:14.175Z,60.65
2022-12-03T06:55:40.580Z,58.83
2022-12-03T06:58:07.084Z,59.05
2022-12-03T07:00:33.596Z,60.63
2022-12-03T07:03:00.033Z,56.50
2022-12-03T07:05:26.664Z,56.72
2022-12-03T07:07:55.527Z,58.90
2022-12-03T07:10:22.485Z,51.58
2022-12-03T07:12:49.370Z,57.85
2022-12-03T07:15:15.874Z,54.92
2022-12-03T07:17:42.196Z,63.08
2022-12-03T07:20:09.784Z,53.30
2022-12-03T07:22:36.246Z,66.32
2022-12-03T07:25:02.966Z,61.72
2022-12-03T07:27:29.698Z,55.45
2022-12-03T07:29:56.390Z,58.92
2022-12-03T07:32:22.754Z,55.22
2022-12-03T07:34:49.120Z,64.53
2022-12-03T07:37:19.969Z,60.25
2022-12-03T07:39:52.471Z,62.63
2022-12-03T07:42:18.986Z,53.08
2022-12-03T07:44:45.337Z,60.65
2022-12-03T07:47:12.373Z,57.45
2022-12-03T07:49:38.758Z,60.53
2022-12-03T07:52:07.021Z,60.42
2022-12-03T07:54:33.542Z,59.00
2022-12-03T07:57:01.795Z,63.55
2022-12-03T07:59:29.193Z,62.70
2022-12-03T08:01:55.927Z,60.88
2022-12-03T08:04:22.413Z,59.17
2022-12-03T08:06:49.104Z,58.85
2022-12-03T08:09:16.317Z,61.47
2022-12-03T08:11:45.410Z,60.63
2022-12-03T08:14:13.975Z,60.45
2022-12-03T08:16:43.014Z,61.60
2022-12-03T08:19:11.492Z,64.72
2022-12-03T08:24:19.355Z,62.53
2022-12-03T08:26:48.970Z,63.45
2022-12-03T08:29:18.632Z,56.17
2022-12-03T08:31:53.304Z,57.33
2022-12-03T08:34:26.680Z,53.85
2022-12-03T08:37:06.215Z,55.53
2022-12-03T08:39:39.506Z,56.38
2022-12-03T08:42:31.739Z,53.78
2022-12-03T08:45:28.251Z,57.70
2022-12-03T08:48:00.534Z,59.80
2022-12-03T08:50:30.066Z,59.60
2022-12-03T08:53:08.147Z,57.67
2022-12-03T08:55:37.454Z,55.72
2022-12-03T08:58:44.481Z,57.90
2022-12-03T09:01:11.833Z,60.63
2022-12-03T09:03:54.947Z,68.75
2022-12-03T09:06:22.686Z,60.67
2022-12-03T09:08:49.273Z,61.30
2022-12-03T09:11:16.295Z,58.25
2022-12-03T09:13:42.812Z,61.65
2022-12-03T09:16:09.245Z,59.10
2022-12-03T09:18:35.926Z,63.10
2022-12-03T09:21:02.368Z,63.45
2022-12-03T09:23:28.859Z,66.45
2022-12-03T09:25:57.409Z,67.05
2022-12-03T09:28:23.929Z,59.08
2022-12-03T09:30:50.474Z,65.05
2022-12-03T09:33:16.828Z,64.68
2022-12-03T09:35:43.519Z,60.00
2022-12-03T09:38:09.939Z,60.45
2022-12-03T09:40:36.372Z,56.38
2022-12-03T09:43:03.053Z,63.35
2022-12-03T09:45:29.402Z,51.20
2022-12-03T09:47:55.971Z,60.90
2022-12-03T09:50:26.661Z,63.42
2022-12-03T09:52:56.834Z,59.58
2022-12-03T09:55:26.849Z,54.97
2022-12-03T09:57:56.489Z,60.88
2022-12-03T10:00:26.593Z,63.10
2022-12-03T10:02:58.167Z,56.03
2022-12-03T10:05:25.473Z,61.05
2022-12-03T10:07:52.756Z,61.70
2022-12-03T10:10:25.269Z,58.45
2022-12-03T10:12:52.627Z,58.90
2022-12-03T10:15:21.566Z,60.97
2022-12-03T10:17:49.728Z,57.78
2022-12-03T10:20:19.935Z,62.20
2022-12-03T10:22:48.852Z,59.30
2022-12-03T10:25:21.244Z,61.28
2022-12-03T10:28:02.321Z,56.58
2022-12-03T10:30:29.560Z,61.35
2022-12-03T10:32:58.531Z,69.47
2022-12-03T10:35:36.733Z,62.28
2022-12-03T10:38:06.620Z,57.10
2022-12-03T10:40:36.618Z,64.13
2022-12-03T10:43:20.746Z,55.53
2022-12-03T10:45:48.271Z,51.78
2022-12-03T10:48:26.180Z,62.07
2022-12-03T10:51:01.814Z,58.00
2022-12-03T10:53:31.012Z,58.70
2022-12-03T10:56:01.761Z,65.32
2022-12-03T10:58:31.093Z,62.65
2022-12-03T11:00:59.415Z,59.40
2022-12-03T11:03:29.381Z,63.45
2022-12-03T11:05:58.666Z,62.00
2022-12-03T11:08:27.677Z,60.55
2022-12-03T11:11:07.422Z,57.25
2022-12-03T11:13:36.595Z,58.28
2022-12-03T11:16:05.588Z,59.70
2022-12-03T11:18:37.987Z,57.13
2022-12-03T11:21:10.335Z,62.42
2022-12-03T11:23:45.915Z,64.68
2022-12-03T11:26:19.177Z,58.72
2022-12-03T11:28:46.218Z,56.83
2022-12-03T11:31:37.205Z,56.90
2022-12-03T11:34:41.757Z,60.10
2022-12-03T11:37:11.195Z,58.53
2022-12-03T11:39:49.659Z,62.53
2022-12-03T11:42:28.276Z,57.55
2022-12-03T11:45:04.060Z,61.05
2022-12-03T11:47:37.660Z,60.13
2022-12-03T11:50:28.850Z,60.80
2022-12-03T11:53:12.976Z,54.25
2022-12-03T11:55:44.909Z,60.92
2022-12-03T11:58:24.208Z,59.97
2022-12-03T12:01:01.975Z,63.35
2022-12-03T12:03:38.662Z,58.13
2022-12-03T12:06:06.985Z,59.13
2022-12-03T12:08:36.943Z,52.28
2022-12-03T12:11:03.901Z,53.30
2022-12-03T12:13:30.426Z,54.97
2022-12-03T12:16:07.995Z,57.42
2022-12-03T12:18:41.889Z,56.85
2022-12-03T12:21:42.928Z,60.53
2022-12-03T12:24:45.748Z,57.22
2022-12-03T12:27:17.510Z,56.40
2022-12-03T12:29:47.052Z,49.75
2022-12-03T12:32:16.114Z,59.47
2022-12-03T12:34:44.198Z,52.40
2022-12-03T12:37:14.403Z,56.50
2022-12-03T12:39:41.085Z,54.83
2022-12-03T12:42:38.148Z,58.75
2022-12-03T12:45:07.493Z,56.83
2022-12-03T12:47:37.106Z,54.75
2022-12-03T12:50:10.949Z,56.42
2022-12-03T12:52:48.900Z,55.38
2022-12-03T12:55:16.753Z,61.60
2022-12-03T12:57:44.332Z,49.95
2022-12-03T13:00:22.098Z,52.47
2022-12-03T13:02:56.627Z,56.05
2022-12-03T13:05:24.263Z,54.55
2022-12-03T13:07:53.162Z,56.13
2022-12-03T13:10:27.457Z,59.65
2022-12-03T13:12:54.388Z,54.00
2022-12-03T13:15:47.275Z,52.17
2022-12-03T13:18:24.365Z,55.58
2022-12-03T13:20:51.347Z,53.17
2022-12-03T13:23:30.852Z,52.38
2022-12-03T13:26:07.142Z,56.55
2022-12-03T13:28:41.447Z,53.38
2022-12-03T13:31:25.916Z,48.50
2022-12-03T13:33:53.518Z,52.20
2022-12-03T13:36:22.758Z,49.77
2022-12-03T13:38:49.691Z,51.47
2022-12-03T13:41:40.890Z,50.13
2022-12-03T13:44:16.912Z,52.67
2022-12-03T13:46:44.533Z,52.53
2022-12-03T13:49:23.893Z,52.00
2022-12-03T13:51:51.070Z,47.83
2022-12-03T13:54:26.095Z,45.15
2022-12-03T13:56:52.459Z,52.75
2022-12-03T13:59:24.473Z,48.35
2022-12-03T14:01:52.751Z,56.35
2022-12-03T14:04:19.133Z,46.63
2022-12-03T14:06:45.865Z,54.85
2022-12-03T14:09:13.308Z,48.47
2022-12-03T14:11:59.599Z,48.90
2022-12-03T14:14:25.963Z,52.80
2022-12-03T14:16:56.774Z,48.88
2022-12-03T14:19:26.214Z,52.40
2022-12-03T14:21:54.420Z,53.50
2022-12-03T14:24:21.019Z,48.25
2022-12-03T14:26:47.652Z,45.70
2022-12-03T14:29:14.012Z,48.08
2022-12-03T14:31:40.436Z,48.40
2022-12-03T14:34:06.876Z,49.08
2022-12-03T14:36:48.801Z,46.85
2022-12-03T14:39:15.221Z,47.60
2022-12-03T14:42:00.125Z,50.38
2022-12-03T14:44:26.658Z,43.78
2022-12-03T14:46:57.006Z,47.90
2022-12-03T14:49:24.422Z,47.67
2022-12-03T14:51:50.990Z,49.15
2022-12-03T14:54:17.384Z,49.67
2022-12-03T14:56:45.152Z,48.38
2022-12-03T14:59:11.897Z,47.13
2022-12-03T15:01:38.342Z,42.92
2022-12-03T15:04:05.141Z,48.28
2022-12-03T15:06:31.586Z,51.92
2022-12-03T15:08:57.967Z,39.38
2022-12-03T15:11:24.423Z,43.53
2022-12-03T15:13:50.949Z,46.50
2022-12-03T15:16:17.512Z,44.67
2022-12-03T15:18:43.891Z,44.63
2022-12-03T15:21:11.869Z,44.90
2022-12-03T15:23:40.596Z,46.67
2022-12-03T15:26:09.737Z,43.83
2022-12-03T15:28:37.287Z,43.22
2022-12-03T15:31:03.717Z,36.60
2022-12-03T15:33:30.353Z,42.45
2022-12-03T15:35:59.245Z,44.55
2022-12-03T15:38:25.624Z,38.20
2022-12-03T15:40:52.228Z,39.58
2022-12-03T15:43:18.673Z,42.20
2022-12-03T15:45:45.061Z,37.50
2022-12-03T15:48:13.407Z,38.72
2022-12-03T15:50:41.008Z,39.67
2022-12-03T15:53:07.482Z,40.77
2022-12-03T15:55:34.143Z,44.92
2022-12-03T15:58:00.497Z,39.03
2022-12-03T16:00:28.851Z,39.55
2022-12-03T16:02:55.284Z,40.85
2022-12-03T16:05:22.437Z,40.88
2022-12-03T16:07:48.818Z,38.38
2022-12-03T16:10:43.553Z,44.95
2022-12-03T16:13:09.902Z,41.33
2022-12-03T16:15:36.315Z,43.75
2022-12-03T16:18:03.275Z,40.50
2022-12-03T16:20:29.872Z,40.42
2022-12-03T16:22:56.242Z,41.22
2022-12-03T16:25:22.710Z,43.10
2022-12-03T16:27:49.227Z,46.00
2022-12-03T16:30:15.840Z,40.55
2022-12-03T16:32:42.219Z,44.40
2022-12-03T16:35:08.844Z,46.20
2022-12-03T16:37:35.656Z,45.20
2022-12-03T16:40:02.793Z,43.40
2022-12-03T16:42:29.321Z,46.42
2022-12-03T16:45:04.805Z,50.17
2022-12-03T16:47:34.101Z,47.25
2022-12-03T16:50:01.891Z,49.17
2022-12-03T16:52:28.553Z,52.13
2022-12-03T16:54:54.932Z,46.17
2022-12-03T16:57:21.463Z,47.08
2022-12-03T16:59:47.771Z,46.78
2022-12-03T17:02:14.260Z,46.35
2022-12-03T17:04:40.704Z,43.83
2022-12-03T17:07:07.072Z,46.78
2022-12-03T17:09:33.413Z,45.92
2022-12-03T17:12:00.031Z,49.63
2022-12-03T17:14:32.877Z,46.45
2022-12-03T17:16:59.725Z,49.70
2022-12-03T17:19:26.241Z,45.13
2022-12-03T17:21:53.920Z,47.42
2022-12-03T17:24:21.261Z,46.55
2022-12-03T17:26:47.619Z,48.28
2022-12-03T17:29:14.247Z,51.75
2022-12-03T17:31:42.617Z,49.15
2022-12-03T17:34:09.482Z,49.08
2022-12-03T17:36:35.831Z,52.97
2022-12-03T17:39:02.240Z,52.45
2022-12-03T17:41:28.815Z,49.50
2022-12-03T17:43:55.340Z,51.65
2022-12-03T17:46:21.833Z,48.13
2022-12-03T17:48:48.449Z,52.42
2022-12-03T17:51:14.950Z,52.70
2022-12-03T17:53:41.266Z,55.45
2022-12-03T17:56:07.827Z,48.78
2022-12-03T17:58:34.645Z,45.65
2022-12-03T18:01:03.055Z,50.22
2022-12-03T18:03:30.056Z,49.05
2022-12-03T18:05:56.729Z,52.63
2022-12-03T18:08:23.436Z,58.13
2022-12-03T18:10:50.316Z,57.03
2022-12-03T18:13:16.751Z,51.28
2022-12-03T18:15:43.281Z,49.25
2022-12-03T18:18:10.185Z,55.58
2022-12-03T18:20:36.810Z,55.90
2022-12-03T18:23:03.631Z,59.35
2022-12-03T18:25:30.321Z,58.08
2022-12-03T18:27:57.211Z,55.83
2022-12-03T18:30:24.118Z,50.38
2022-12-03T18:32:51.015Z,63.78
2022-12-03T18:35:18.199Z,61.95
2022-12-03T18:37:44.917Z,57.85
2022-12-03T18:40:23.838Z,60.88
2022-12-03T18:42:50.594Z,57.83
2022-12-03T18:45:17.270Z,60.83
2022-12-03T18:47:44.249Z,57.97
2022-12-03T18:50:11.772Z,65.05
2022-12-03T18:52:38.716Z,56.93
2022-12-03T18:55:07.657Z,60.30
2022-12-03T18:57:33.984Z,60.63
2022-12-03T19:00:00.407Z,70.30
2022-12-03T19:03:00.729Z,58.55
2022-12-03T19:05:13.693Z,67.07
2022-12-03T19:07:40.266Z,67.10
2022-12-03T19:10:07.575Z,59.80
2022-12-03T19:12:34.070Z,59.20
2022-12-03T19:15:00.721Z,58.92
2022-12-03T19:17:27.435Z,63.30
2022-12-03T19:19:54.673Z,64.55
2022-12-03T19:22:21.622Z,65.45
2022-12-03T19:24:47.961Z,58.72
2022-12-03T19:27:14.357Z,65.18
2022-12-03T19:29:40.891Z,64.30
2022-12-03T19:32:07.481Z,65.28
2022-12-03T19:34:34.909Z,65.90
2022-12-03T19:37:02.631Z,65.68
2022-12-03T19:39:29.113Z,64.15
2022-12-03T19:41:55.630Z,64.57
2022-12-03T19:44:21.990Z,66.18
2022-12-03T19:46:49.827Z,66.03
2022-12-03T19:49:18.443Z,52.75
2022-12-03T19:51:44.995Z,66.20
2022-12-03T19:54:11.957Z,69.57
2022-12-03T19:56:38.775Z,69.00
2022-12-03T19:59:05.397Z,61.67
2022-12-03T20:01:35.746Z,71.30
2022-12-03T20:04:04.215Z,63.47
2022-12-03T20:09:01.025Z,66.95
2022-12-03T20:11:30.525Z,67.38
2022-12-03T20:14:01.265Z,66.45
2022-12-03T20:16:28.797Z,72.40
2022-12-03T20:19:01.899Z,68.68
2022-12-03T20:21:33.790Z,67.60
2022-12-03T20:24:00.625Z,65.40
2022-12-03T20:26:27.734Z,63.95
2022-12-03T20:28:55.167Z,71.72
2022-12-03T20:31:25.870Z,75.73
2022-12-03T20:33:57.140Z,68.95
2022-12-03T20:36:24.794Z,67.60
2022-12-03T20:38:56.095Z,63.67
2022-12-03T20:41:23.057Z,68.10
2022-12-03T20:43:50.036Z,69.05
2022-12-03T20:46:23.107Z,62.03
2022-12-03T20:48:49.454Z,71.50
2022-12-03T20:51:19.340Z,65.65
2022-12-03T20:53:46.317Z,68.30
2022-12-03T20:56:33.682Z,67.28
2022-12-03T20:59:02.358Z,64.75
2022-12-03T21:01:28.918Z,67.80
2022-12-03T21:03:59.523Z,70.40
2022-12-03T21:06:28.151Z,67.20
2022-12-03T21:08:55.422Z,70.38
2022-12-03T21:11:24.113Z,65.78
2022-12-03T21:13:51.061Z,65.60
2022-12-03T21:16:45.446Z,75.28
2022-12-03T21:19:10.636Z,72.45
2022-12-03T21:21:37.068Z,67.13
2022-12-03T21:24:03.557Z,73.07
2022-12-03T21:26:29.909Z,70.60
2022-12-03T21:28:56.262Z,71.07
2022-12-03T21:31:26.606Z,71.05
2022-12-03T21:33:54.577Z,70.63
2022-12-03T21:36:24.377Z,68.78
2022-12-03T21:38:51.258Z,68.80
2022-12-03T21:41:18.598Z,69.35
2022-12-03T21:43:47.679Z,76.47
2022-12-03T21:47:11.972Z,72.60
2022-12-03T21:49:04.446Z,72.50
2022-12-03T21:51:33.238Z,63.35
2022-12-03T21:53:59.624Z,71.32
2022-12-03T21:56:27.915Z,77.40
2022-12-03T21:58:58.806Z,70.47
2022-12-03T22:01:25.478Z,68.18
2022-12-03T22:03:54.856Z,68.65
2022-12-03T22:06:21.265Z,73.32
2022-12-03T22:08:48.477Z,78.72
2022-12-03T22:11:20.845Z,65.72
2022-12-03T22:13:48.133Z,75.35
2022-12-03T22:16:20.202Z,72.13
2022-12-03T22:18:47.366Z,82.25
2022-12-03T22:21:17.931Z,76.47
2022-12-03T22:23:47.333Z,73.15
2022-12-03T22:26:16.498Z,75.07
2022-12-03T22:28:44.568Z,78.30
2022-12-03T22:31:11.914Z,74.50
2022-12-03T22:33:39.099Z,72.50
2022-12-03T22:36:08.479Z,79.28
2022-12-03T22:38:35.207Z,67.07
2022-12-03T22:41:06.140Z,75.10
2022-12-03T22:43:33.099Z,78.35
2022-12-03T22:45:59.961Z,79.45
2022-12-03T22:48:26.574Z,70.38
2022-12-03T22:50:52.874Z,70.25
2022-12-03T22:53:20.349Z,72.68
2022-12-03T22:55:55.479Z,70.30
2022-12-03T22:58:23.369Z,73.47
2022-12-03T23:00:50.273Z,63.85
2022-12-03T23:03:17.052Z,68.57
2022-12-03T23:05:43.688Z,71.65
2022-12-03T23:08:16.077Z,69.80
2022-12-03T23:10:44.687Z,66.93
2022-12-03T23:13:11.598Z,68.72
2022-12-03T23:15:38.419Z,72.20
2022-12-03T23:18:05.345Z,74.00
2022-12-03T23:20:31.931Z,72.45
2022-12-03T23:22:59.571Z,72.50
2022-12-03T23:25:25.966Z,69.28
2022-12-03T23:27:52.365Z,66.38
2022-12-03T23:30:18.752Z,69.18
2022-12-03T23:32:45.205Z,66.28
2022-12-03T23:35:13.231Z,74.22
2022-12-03T23:37:43.019Z,66.55
2022-12-03T23:40:10.734Z,59.15
2022-12-03T23:42:37.076Z,57.72
2022-12-03T23:45:03.846Z,67.47
2022-12-03T23:47:30.649Z,69.30
2022-12-03T23:49:57.418Z,64.68
2022-12-03T23:52:24.380Z,64.93
2022-12-03T23:54:51.533Z,64.28
2022-12-03T23:57:18.300Z,64.60
2022-12-03T23:59:44.745Z,64.38
